sensor_id;sensor_type;location;lat;lon;timestamp;temperature;humidity
7684;DHT22;3884;48.616;12.872;2024-02-21T00:00:03;5.50;1.00
7684;DHT22;3884;48.616;12.872;2024-02-21T00:02:30;5.50;1.00
7684;DHT22;3884;48.616;12.872;2024-02-21T00:04:57;5.60;1.00
7684;DHT22;3884;48.616;12.872;2024-02-21T00:07:25;5.60;1.00
7684;DHT22;3884;48.616;12.872;2024-02-21T00:09:52;5.50;1.00
7684;DHT22;3884;48.616;12.872;2024-02-21T00:12:19;5.60;1.00
7684;DHT22;3884;48.616;12.872;2024-02-21T00:14:46;5.60;1.00
7684;DHT22;3884;48.616;12.872;2024-02-21T00:17:13;5.60;1.00
7684;DHT22;3884;48.616;12.872;2024-02-21T00:19:39;5.60;1.00
7684;DHT22;3884;48.616;12.872;2024-02-21T00:22:07;5.60;1.00
7684;DHT22;3884;48.616;12.872;2024-02-21T00:24:35;5.60;1.00
7684;DHT22;3884;48.616;12.872;2024-02-21T00:27:02;5.70;1.00
7684;DHT22;3884;48.616;12.872;2024-02-21T00:29:29;5.70;1.00
7684;DHT22;3884;48.616;12.872;2024-02-21T00:31:56;5.70;1.00
7684;DHT22;3884;48.616;12.872;2024-02-21T00:34:22;5.70;1.00
7684;DHT22;3884;48.616;12.872;2024-02-21T00:36:49;5.70;1.00
7684;DHT22;3884;48.616;12.872;2024-02-21T00:39:16;5.70;1.00
7684;DHT22;3884;48.616;12.872;2024-02-21T00:41:45;5.70;1.00
7684;DHT22;3884;48.616;12.872;2024-02-21T00:44:11;5.70;1.00
7684;DHT22;3884;48.616;12.872;2024-02-21T00:46:38;5.70;1.00
7684;DHT22;3884;48.616;12.872;2024-02-21T00:49:05;5.80;1.00
7684;DHT22;3884;48.616;12.872;2024-02-21T00:51:32;5.70;1.00
7684;DHT22;3884;48.616;12.872;2024-02-21T00:53:59;5.80;1.00
7684;DHT22;3884;48.616;12.872;2024-02-21T00:56:27;5.70;1.00
7684;DHT22;3884;48.616;12.872;2024-02-21T00:58:56;5.70;1.00
7684;DHT22;3884;48.616;12.872;2024-02-21T01:01:24;5.70;1.00
7684;DHT22;3884;48.616;12.872;2024-02-21T01:03:51;5.80;1.00
7684;DHT22;3884;48.616;12.872;2024-02-21T01:06:19;5.80;1.00
7684;DHT22;3884;48.616;12.872;2024-02-21T01:08:46;5.80;1.00
7684;DHT22;3884;48.616;12.872;2024-02-21T01:11:13;5.80;1.00
7684;DHT22;3884;48.616;12.872;2024-02-21T01:13:40;5.80;1.00
7684;DHT22;3884;48.616;12.872;2024-02-21T01:16:09;5.80;1.00
7684;DHT22;3884;48.616;12.872;2024-02-21T01:18:37;5.80;1.00
7684;DHT22;3884;48.616;12.872;2024-02-21T01:21:05;5.70;1.00
7684;DHT22;3884;48.616;12.872;2024-02-21T01:23:32;5.70;1.00
7684;DHT22;3884;48.616;12.872;2024-02-21T01:25:59;5.60;1.00
7684;DHT22;3884;48.616;12.872;2024-02-21T01:28:26;5.60;1.00
7684;DHT22;3884;48.616;12.872;2024-02-21T01:30:53;5.60;1.00
7684;DHT22;3884;48.616;12.872;2024-02-21T01:33:22;5.60;1.00
7684;DHT22;3884;48.616;12.872;2024-02-21T01:35:49;5.50;1.00
7684;DHT22;3884;48.616;12.872;2024-02-21T01:38:16;5.60;1.00
7684;DHT22;3884;48.616;12.872;2024-02-21T01:40:43;5.60;1.00
7684;DHT22;3884;48.616;12.872;2024-02-21T01:43:20;5.50;1.00
7684;DHT22;3884;48.616;12.872;2024-02-21T01:45:50;5.50;1.00
7684;DHT22;3884;48.616;12.872;2024-02-21T01:48:17;5.50;1.00
7684;DHT22;3884;48.616;12.872;2024-02-21T01:50:46;5.50;1.00
7684;DHT22;3884;48.616;12.872;2024-02-21T01:53:14;5.50;1.00
7684;DHT22;3884;48.616;12.872;2024-02-21T01:55:44;5.40;1.00
7684;DHT22;3884;48.616;12.872;2024-02-21T01:58:12;5.40;1.00
7684;DHT22;3884;48.616;12.872;2024-02-21T02:00:41;5.40;1.00
7684;DHT22;3884;48.616;12.872;2024-02-21T02:03:10;5.30;1.00
7684;DHT22;3884;48.616;12.872;2024-02-21T02:05:43;5.40;1.00
7684;DHT22;3884;48.616;12.872;2024-02-21T02:08:11;5.40;1.00
7684;DHT22;3884;48.616;12.872;2024-02-21T02:10:39;5.40;1.00
7684;DHT22;3884;48.616;12.872;2024-02-21T02:13:06;5.40;1.00
7684;DHT22;3884;48.616;12.872;2024-02-21T02:15:40;5.40;1.00
7684;DHT22;3884;48.616;12.872;2024-02-21T02:18:07;5.40;1.00
7684;DHT22;3884;48.616;12.872;2024-02-21T02:20:35;5.40;1.00
7684;DHT22;3884;48.616;12.872;2024-02-21T02:23:07;5.40;1.00
7684;DHT22;3884;48.616;12.872;2024-02-21T02:25:35;5.50;1.00
7684;DHT22;3884;48.616;12.872;2024-02-21T02:28:03;5.40;1.00
7684;DHT22;3884;48.616;12.872;2024-02-21T02:30:32;5.40;1.00
7684;DHT22;3884;48.616;12.872;2024-02-21T02:32:59;5.50;1.00
7684;DHT22;3884;48.616;12.872;2024-02-21T02:35:26;5.50;1.00
7684;DHT22;3884;48.616;12.872;2024-02-21T02:37:53;5.60;1.00
7684;DHT22;3884;48.616;12.872;2024-02-21T02:40:20;5.50;1.00
7684;DHT22;3884;48.616;12.872;2024-02-21T02:42:48;5.50;1.00
7684;DHT22;3884;48.616;12.872;2024-02-21T02:45:15;5.50;1.00
7684;DHT22;3884;48.616;12.872;2024-02-21T02:47:44;5.50;1.00
7684;DHT22;3884;48.616;12.872;2024-02-21T02:50:11;5.40;1.00
7684;DHT22;3884;48.616;12.872;2024-02-21T02:52:38;5.40;1.00
7684;DHT22;3884;48.616;12.872;2024-02-21T02:55:06;5.30;1.00
7684;DHT22;3884;48.616;12.872;2024-02-21T02:57:33;5.20;1.00
7684;DHT22;3884;48.616;12.872;2024-02-21T03:00:02;5.20;1.00
7684;DHT22;3884;48.616;12.872;2024-02-21T03:02:30;5.20;1.00
7684;DHT22;3884;48.616;12.872;2024-02-21T03:04:57;5.10;1.00
7684;DHT22;3884;48.616;12.872;2024-02-21T03:07:25;5.10;1.00
7684;DHT22;3884;48.616;12.872;2024-02-21T03:09:52;5.00;1.00
7684;DHT22;3884;48.616;12.872;2024-02-21T03:12:20;5.00;1.00
7684;DHT22;3884;48.616;12.872;2024-02-21T03:14:53;4.90;1.00
7684;DHT22;3884;48.616;12.872;2024-02-21T03:17:21;4.80;1.00
7684;DHT22;3884;48.616;12.872;2024-02-21T03:19:48;4.70;1.00
7684;DHT22;3884;48.616;12.872;2024-02-21T03:22:15;4.60;1.00
7684;DHT22;3884;48.616;12.872;2024-02-21T03:24:42;4.50;1.00
7684;DHT22;3884;48.616;12.872;2024-02-21T03:27:09;4.60;1.00
7684;DHT22;3884;48.616;12.872;2024-02-21T03:29:36;4.60;1.00
7684;DHT22;3884;48.616;12.872;2024-02-21T03:32:03;4.70;1.00
7684;DHT22;3884;48.616;12.872;2024-02-21T03:34:31;4.70;1.00
7684;DHT22;3884;48.616;12.872;2024-02-21T03:36:58;4.80;1.00
7684;DHT22;3884;48.616;12.872;2024-02-21T03:39:25;4.80;1.00
7684;DHT22;3884;48.616;12.872;2024-02-21T03:41:52;4.90;1.00
7684;DHT22;3884;48.616;12.872;2024-02-21T03:44:19;4.90;1.00
7684;DHT22;3884;48.616;12.872;2024-02-21T03:46:46;5.00;1.00
7684;DHT22;3884;48.616;12.872;2024-02-21T03:49:13;5.00;1.00
7684;DHT22;3884;48.616;12.872;2024-02-21T03:51:41;5.00;1.00
7684;DHT22;3884;48.616;12.872;2024-02-21T03:54:08;5.00;1.00
7684;DHT22;3884;48.616;12.872;2024-02-21T03:56:37;5.10;1.00
7684;DHT22;3884;48.616;12.872;2024-02-21T03:59:05;5.10;1.00
7684;DHT22;3884;48.616;12.872;2024-02-21T04:01:32;5.10;1.00
7684;DHT22;3884;48.616;12.872;2024-02-21T04:03:59;5.10;1.00
7684;DHT22;3884;48.616;12.872;2024-02-21T04:06:26;5.10;1.00
7684;DHT22;3884;48.616;12.872;2024-02-21T04:08:54;5.00;1.00
7684;DHT22;3884;48.616;12.872;2024-02-21T04:11:21;5.10;1.00
7684;DHT22;3884;48.616;12.872;2024-02-21T04:13:48;5.10;1.00
7684;DHT22;3884;48.616;12.872;2024-02-21T04:16:15;5.10;1.00
7684;DHT22;3884;48.616;12.872;2024-02-21T04:18:42;5.10;1.00
7684;DHT22;3884;48.616;12.872;2024-02-21T04:21:10;5.10;1.00
7684;DHT22;3884;48.616;12.872;2024-02-21T04:23:37;5.20;1.00
7684;DHT22;3884;48.616;12.872;2024-02-21T04:26:05;5.20;1.00
7684;DHT22;3884;48.616;12.872;2024-02-21T04:28:32;5.20;1.00
7684;DHT22;3884;48.616;12.872;2024-02-21T04:30:59;5.30;1.00
7684;DHT22;3884;48.616;12.872;2024-02-21T04:33:26;5.30;1.00
7684;DHT22;3884;48.616;12.872;2024-02-21T04:35:52;5.30;1.00
7684;DHT22;3884;48.616;12.872;2024-02-21T04:38:20;5.30;1.00
7684;DHT22;3884;48.616;12.872;2024-02-21T04:40:47;5.30;1.00
7684;DHT22;3884;48.616;12.872;2024-02-21T04:43:15;5.30;1.00
7684;DHT22;3884;48.616;12.872;2024-02-21T04:45:42;5.30;1.00
7684;DHT22;3884;48.616;12.872;2024-02-21T04:48:09;5.40;1.00
7684;DHT22;3884;48.616;12.872;2024-02-21T04:50:36;5.40;1.00
7684;DHT22;3884;48.616;12.872;2024-02-21T04:53:03;5.40;1.00
7684;DHT22;3884;48.616;12.872;2024-02-21T04:55:30;5.40;1.00
7684;DHT22;3884;48.616;12.872;2024-02-21T04:57:59;5.40;1.00
7684;DHT22;3884;48.616;12.872;2024-02-21T05:00:29;5.40;1.00
7684;DHT22;3884;48.616;12.872;2024-02-21T05:02:56;5.40;1.00
7684;DHT22;3884;48.616;12.872;2024-02-21T05:05:23;5.40;1.00
7684;DHT22;3884;48.616;12.872;2024-02-21T05:07:49;5.50;1.00
7684;DHT22;3884;48.616;12.872;2024-02-21T05:10:16;5.50;1.00
7684;DHT22;3884;48.616;12.872;2024-02-21T05:12:45;5.50;1.00
7684;DHT22;3884;48.616;12.872;2024-02-21T05:15:12;5.40;1.00
7684;DHT22;3884;48.616;12.872;2024-02-21T05:17:40;5.40;1.00
7684;DHT22;3884;48.616;12.872;2024-02-21T05:20:09;5.40;1.00
7684;DHT22;3884;48.616;12.872;2024-02-21T05:22:36;5.30;1.00
7684;DHT22;3884;48.616;12.872;2024-02-21T05:25:03;5.30;1.00
7684;DHT22;3884;48.616;12.872;2024-02-21T05:27:30;5.30;1.00
7684;DHT22;3884;48.616;12.872;2024-02-21T05:29:57;5.20;1.00
7684;DHT22;3884;48.616;12.872;2024-02-21T05:32:24;5.20;1.00
7684;DHT22;3884;48.616;12.872;2024-02-21T05:34:52;5.20;1.00
7684;DHT22;3884;48.616;12.872;2024-02-21T05:37:19;5.20;1.00
7684;DHT22;3884;48.616;12.872;2024-02-21T05:39:46;5.10;1.00
7684;DHT22;3884;48.616;12.872;2024-02-21T05:42:12;5.10;1.00
7684;DHT22;3884;48.616;12.872;2024-02-21T05:44:39;5.10;1.00
7684;DHT22;3884;48.616;12.872;2024-02-21T05:47:06;5.10;1.00
7684;DHT22;3884;48.616;12.872;2024-02-21T05:49:35;5.10;1.00
7684;DHT22;3884;48.616;12.872;2024-02-21T05:52:04;5.10;1.00
7684;DHT22;3884;48.616;12.872;2024-02-21T05:54:31;5.10;1.00
7684;DHT22;3884;48.616;12.872;2024-02-21T05:56:59;5.10;1.00
7684;DHT22;3884;48.616;12.872;2024-02-21T05:59:25;5.10;1.00
7684;DHT22;3884;48.616;12.872;2024-02-21T06:01:56;5.00;1.00
7684;DHT22;3884;48.616;12.872;2024-02-21T06:04:23;5.00;1.00
7684;DHT22;3884;48.616;12.872;2024-02-21T06:06:50;5.00;1.00
7684;DHT22;3884;48.616;12.872;2024-02-21T06:09:22;5.00;1.00
7684;DHT22;3884;48.616;12.872;2024-02-21T06:11:48;4.90;1.00
7684;DHT22;3884;48.616;12.872;2024-02-21T06:14:15;4.90;1.00
7684;DHT22;3884;48.616;12.872;2024-02-21T06:16:43;4.80;1.00
7684;DHT22;3884;48.616;12.872;2024-02-21T06:19:10;4.40;1.00
7684;DHT22;3884;48.616;12.872;2024-02-21T06:21:37;4.20;1.00
7684;DHT22;3884;48.616;12.872;2024-02-21T06:24:04;4.10;99.90
7684;DHT22;3884;48.616;12.872;2024-02-21T06:26:32;4.00;99.90
7684;DHT22;3884;48.616;12.872;2024-02-21T06:28:59;4.10;99.90
7684;DHT22;3884;48.616;12.872;2024-02-21T06:31:27;4.40;99.90
7684;DHT22;3884;48.616;12.872;2024-02-21T06:33:54;4.50;1.00
7684;DHT22;3884;48.616;12.872;2024-02-21T06:36:21;4.60;1.00
7684;DHT22;3884;48.616;12.872;2024-02-21T06:38:48;4.50;1.00
7684;DHT22;3884;48.616;12.872;2024-02-21T06:41:15;4.40;1.00
7684;DHT22;3884;48.616;12.872;2024-02-21T06:43:45;4.40;4.60
7684;DHT22;3884;48.616;12.872;2024-02-21T06:46:21;4.50;1.00
7684;DHT22;3884;48.616;12.872;2024-02-21T06:48:49;4.40;1.00
7684;DHT22;3884;48.616;12.872;2024-02-21T06:51:16;4.40;1.00
7684;DHT22;3884;48.616;12.872;2024-02-21T06:53:42;4.20;54.40
7684;DHT22;3884;48.616;12.872;2024-02-21T06:56:10;4.20;99.90
7684;DHT22;3884;48.616;12.872;2024-02-21T06:58:37;4.10;99.90
7684;DHT22;3884;48.616;12.872;2024-02-21T07:01:05;4.20;99.90
7684;DHT22;3884;48.616;12.872;2024-02-21T07:03:32;4.30;99.90
7684;DHT22;3884;48.616;12.872;2024-02-21T07:06:04;4.40;99.90
7684;DHT22;3884;48.616;12.872;2024-02-21T07:08:32;4.60;1.00
7684;DHT22;3884;48.616;12.872;2024-02-21T07:10:59;4.70;1.00
7684;DHT22;3884;48.616;12.872;2024-02-21T07:13:26;4.80;1.00
7684;DHT22;3884;48.616;12.872;2024-02-21T07:15:53;4.80;1.00
7684;DHT22;3884;48.616;12.872;2024-02-21T07:18:21;4.90;1.00
7684;DHT22;3884;48.616;12.872;2024-02-21T07:20:50;4.90;1.00
7684;DHT22;3884;48.616;12.872;2024-02-21T07:23:16;5.00;1.00
7684;DHT22;3884;48.616;12.872;2024-02-21T07:25:43;5.00;1.00
7684;DHT22;3884;48.616;12.872;2024-02-21T07:28:10;5.00;1.00
7684;DHT22;3884;48.616;12.872;2024-02-21T07:30:39;5.10;1.00
7684;DHT22;3884;48.616;12.872;2024-02-21T07:33:06;5.10;1.00
7684;DHT22;3884;48.616;12.872;2024-02-21T07:35:35;5.10;1.00
7684;DHT22;3884;48.616;12.872;2024-02-21T07:38:03;4.90;1.00
7684;DHT22;3884;48.616;12.872;2024-02-21T07:40:30;4.70;1.00
7684;DHT22;3884;48.616;12.872;2024-02-21T07:42:57;4.70;99.90
7684;DHT22;3884;48.616;12.872;2024-02-21T07:45:24;4.70;99.90
7684;DHT22;3884;48.616;12.872;2024-02-21T07:47:52;4.80;99.90
7684;DHT22;3884;48.616;12.872;2024-02-21T07:50:19;5.00;1.00
7684;DHT22;3884;48.616;12.872;2024-02-21T07:52:47;5.10;1.00
7684;DHT22;3884;48.616;12.872;2024-02-21T07:55:14;5.40;1.00
7684;DHT22;3884;48.616;12.872;2024-02-21T07:57:41;5.70;1.00
7684;DHT22;3884;48.616;12.872;2024-02-21T08:00:08;5.90;1.00
7684;DHT22;3884;48.616;12.872;2024-02-21T08:02:39;6.00;1.00
7684;DHT22;3884;48.616;12.872;2024-02-21T08:05:08;6.10;1.00
7684;DHT22;3884;48.616;12.872;2024-02-21T08:07:37;6.10;1.00
7684;DHT22;3884;48.616;12.872;2024-02-21T08:10:08;6.10;1.00
7684;DHT22;3884;48.616;12.872;2024-02-21T08:12:35;6.20;1.00
7684;DHT22;3884;48.616;12.872;2024-02-21T08:15:03;6.40;1.00
7684;DHT22;3884;48.616;12.872;2024-02-21T08:17:30;6.50;1.00
7684;DHT22;3884;48.616;12.872;2024-02-21T08:19:57;6.50;1.00
7684;DHT22;3884;48.616;12.872;2024-02-21T08:22:24;6.60;1.00
7684;DHT22;3884;48.616;12.872;2024-02-21T08:24:50;6.60;1.00
7684;DHT22;3884;48.616;12.872;2024-02-21T08:27:19;6.60;1.00
7684;DHT22;3884;48.616;12.872;2024-02-21T08:29:46;6.80;1.00
7684;DHT22;3884;48.616;12.872;2024-02-21T08:32:13;7.10;1.00
7684;DHT22;3884;48.616;12.872;2024-02-21T08:34:40;7.30;99.90
7684;DHT22;3884;48.616;12.872;2024-02-21T08:37:06;7.40;99.90
7684;DHT22;3884;48.616;12.872;2024-02-21T08:39:33;7.70;99.90
7684;DHT22;3884;48.616;12.872;2024-02-21T08:42:00;7.60;99.90
7684;DHT22;3884;48.616;12.872;2024-02-21T08:44:29;7.60;99.90
7684;DHT22;3884;48.616;12.872;2024-02-21T08:46:55;7.50;99.90
7684;DHT22;3884;48.616;12.872;2024-02-21T08:49:23;7.50;99.90
7684;DHT22;3884;48.616;12.872;2024-02-21T08:51:52;7.50;99.90
7684;DHT22;3884;48.616;12.872;2024-02-21T08:54:19;7.40;99.90
7684;DHT22;3884;48.616;12.872;2024-02-21T08:56:46;7.50;99.90
7684;DHT22;3884;48.616;12.872;2024-02-21T08:59:13;7.40;99.90
7684;DHT22;3884;48.616;12.872;2024-02-21T09:01:42;7.50;99.90
7684;DHT22;3884;48.616;12.872;2024-02-21T09:04:09;7.60;99.90
7684;DHT22;3884;48.616;12.872;2024-02-21T09:06:35;7.80;99.90
7684;DHT22;3884;48.616;12.872;2024-02-21T09:09:04;7.80;99.90
7684;DHT22;3884;48.616;12.872;2024-02-21T09:11:33;8.10;99.90
7684;DHT22;3884;48.616;12.872;2024-02-21T09:14:00;8.30;99.90
7684;DHT22;3884;48.616;12.872;2024-02-21T09:16:30;8.40;99.90
7684;DHT22;3884;48.616;12.872;2024-02-21T09:18:58;8.50;99.90
7684;DHT22;3884;48.616;12.872;2024-02-21T09:21:26;8.50;99.90
7684;DHT22;3884;48.616;12.872;2024-02-21T09:23:53;8.50;99.90
7684;DHT22;3884;48.616;12.872;2024-02-21T09:26:20;8.70;99.90
7684;DHT22;3884;48.616;12.872;2024-02-21T09:28:47;9.00;99.90
7684;DHT22;3884;48.616;12.872;2024-02-21T09:31:14;9.00;99.90
7684;DHT22;3884;48.616;12.872;2024-02-21T09:33:42;9.00;99.90
7684;DHT22;3884;48.616;12.872;2024-02-21T09:36:11;8.90;99.90
7684;DHT22;3884;48.616;12.872;2024-02-21T09:38:39;9.00;99.90
7684;DHT22;3884;48.616;12.872;2024-02-21T09:41:14;9.00;99.90
7684;DHT22;3884;48.616;12.872;2024-02-21T09:43:42;8.80;99.90
7684;DHT22;3884;48.616;12.872;2024-02-21T09:46:15;8.70;99.90
7684;DHT22;3884;48.616;12.872;2024-02-21T09:49:02;8.80;99.90
7684;DHT22;3884;48.616;12.872;2024-02-21T09:51:33;8.80;99.90
7684;DHT22;3884;48.616;12.872;2024-02-21T09:54:01;8.80;99.90
7684;DHT22;3884;48.616;12.872;2024-02-21T09:56:28;8.80;99.90
7684;DHT22;3884;48.616;12.872;2024-02-21T09:58:56;8.80;99.90
7684;DHT22;3884;48.616;12.872;2024-02-21T10:01:24;8.70;99.90
7684;DHT22;3884;48.616;12.872;2024-02-21T10:03:51;8.70;99.90
7684;DHT22;3884;48.616;12.872;2024-02-21T10:06:18;8.80;99.90
7684;DHT22;3884;48.616;12.872;2024-02-21T10:08:53;8.90;99.90
7684;DHT22;3884;48.616;12.872;2024-02-21T10:11:22;8.90;99.90
7684;DHT22;3884;48.616;12.872;2024-02-21T10:13:50;9.00;99.90
7684;DHT22;3884;48.616;12.872;2024-02-21T10:16:17;9.00;99.90
7684;DHT22;3884;48.616;12.872;2024-02-21T10:18:43;9.00;99.90
7684;DHT22;3884;48.616;12.872;2024-02-21T10:21:10;8.90;99.90
7684;DHT22;3884;48.616;12.872;2024-02-21T10:23:41;9.00;99.90
7684;DHT22;3884;48.616;12.872;2024-02-21T10:26:10;9.00;99.90
7684;DHT22;3884;48.616;12.872;2024-02-21T10:28:37;9.10;99.90
7684;DHT22;3884;48.616;12.872;2024-02-21T10:31:08;9.20;99.90
7684;DHT22;3884;48.616;12.872;2024-02-21T10:33:35;9.10;99.90
7684;DHT22;3884;48.616;12.872;2024-02-21T10:36:07;9.10;99.90
7684;DHT22;3884;48.616;12.872;2024-02-21T10:38:35;9.20;99.90
7684;DHT22;3884;48.616;12.872;2024-02-21T10:41:03;9.20;99.90
7684;DHT22;3884;48.616;12.872;2024-02-21T10:43:37;9.30;99.90
7684;DHT22;3884;48.616;12.872;2024-02-21T10:46:05;9.20;99.90
7684;DHT22;3884;48.616;12.872;2024-02-21T10:48:41;9.50;99.90
7684;DHT22;3884;48.616;12.872;2024-02-21T10:51:16;9.50;99.90
7684;DHT22;3884;48.616;12.872;2024-02-21T10:53:47;9.60;99.90
7684;DHT22;3884;48.616;12.872;2024-02-21T10:56:22;9.70;99.90
7684;DHT22;3884;48.616;12.872;2024-02-21T10:58:54;9.70;99.90
7684;DHT22;3884;48.616;12.872;2024-02-21T11:01:22;9.80;99.90
7684;DHT22;3884;48.616;12.872;2024-02-21T11:03:53;9.60;99.90
7684;DHT22;3884;48.616;12.872;2024-02-21T11:06:21;9.70;99.90
7684;DHT22;3884;48.616;12.872;2024-02-21T11:09:00;9.70;99.90
7684;DHT22;3884;48.616;12.872;2024-02-21T11:11:28;9.80;99.90
7684;DHT22;3884;48.616;12.872;2024-02-21T11:14:05;9.90;99.90
7684;DHT22;3884;48.616;12.872;2024-02-21T11:16:36;10.10;99.90
7684;DHT22;3884;48.616;12.872;2024-02-21T11:19:06;10.10;99.90
7684;DHT22;3884;48.616;12.872;2024-02-21T11:21:34;10.10;99.90
7684;DHT22;3884;48.616;12.872;2024-02-21T11:24:01;10.20;99.90
7684;DHT22;3884;48.616;12.872;2024-02-21T11:26:29;10.10;99.90
7684;DHT22;3884;48.616;12.872;2024-02-21T11:28:59;10.20;99.90
7684;DHT22;3884;48.616;12.872;2024-02-21T11:31:40;10.20;99.90
7684;DHT22;3884;48.616;12.872;2024-02-21T11:34:09;10.30;99.90
7684;DHT22;3884;48.616;12.872;2024-02-21T11:36:39;10.40;99.90
7684;DHT22;3884;48.616;12.872;2024-02-21T11:39:12;10.40;99.90
7684;DHT22;3884;48.616;12.872;2024-02-21T11:42:02;10.40;99.90
7684;DHT22;3884;48.616;12.872;2024-02-21T11:44:30;10.40;99.90
7684;DHT22;3884;48.616;12.872;2024-02-21T11:47:03;10.50;99.90
7684;DHT22;3884;48.616;12.872;2024-02-21T11:49:30;10.50;99.90
7684;DHT22;3884;48.616;12.872;2024-02-21T11:51:58;10.50;99.90
7684;DHT22;3884;48.616;12.872;2024-02-21T11:54:26;10.60;99.90
7684;DHT22;3884;48.616;12.872;2024-02-21T11:56:53;10.60;99.90
7684;DHT22;3884;48.616;12.872;2024-02-21T11:59:22;10.60;99.90
7684;DHT22;3884;48.616;12.872;2024-02-21T12:01:58;10.70;99.90
7684;DHT22;3884;48.616;12.872;2024-02-21T12:04:26;10.70;99.90
7684;DHT22;3884;48.616;12.872;2024-02-21T12:06:54;10.70;99.50
7684;DHT22;3884;48.616;12.872;2024-02-21T12:09:23;10.70;99.90
7684;DHT22;3884;48.616;12.872;2024-02-21T12:11:58;10.80;99.90
7684;DHT22;3884;48.616;12.872;2024-02-21T12:14:28;10.90;99.90
7684;DHT22;3884;48.616;12.872;2024-02-21T12:16:58;10.90;99.90
7684;DHT22;3884;48.616;12.872;2024-02-21T12:19:41;10.90;99.90
7684;DHT22;3884;48.616;12.872;2024-02-21T12:22:08;11.00;99.90
7684;DHT22;3884;48.616;12.872;2024-02-21T12:24:35;11.00;99.40
7684;DHT22;3884;48.616;12.872;2024-02-21T12:27:08;11.00;96.80
7684;DHT22;3884;48.616;12.872;2024-02-21T12:29:39;11.00;98.60
7684;DHT22;3884;48.616;12.872;2024-02-21T12:32:08;11.00;99.90
7684;DHT22;3884;48.616;12.872;2024-02-21T12:34:35;11.00;98.20
7684;DHT22;3884;48.616;12.872;2024-02-21T12:37:03;11.20;95.40
7684;DHT22;3884;48.616;12.872;2024-02-21T12:39:32;11.30;99.90
7684;DHT22;3884;48.616;12.872;2024-02-21T12:41:59;11.20;95.10
7684;DHT22;3884;48.616;12.872;2024-02-21T12:44:29;11.10;94.10
7684;DHT22;3884;48.616;12.872;2024-02-21T12:47:00;11.20;91.80
7684;DHT22;3884;48.616;12.872;2024-02-21T12:49:28;11.20;88.90
7684;DHT22;3884;48.616;12.872;2024-02-21T12:51:58;11.30;94.90
7684;DHT22;3884;48.616;12.872;2024-02-21T12:54:27;11.40;90.20
7684;DHT22;3884;48.616;12.872;2024-02-21T12:56:56;11.40;84.20
7684;DHT22;3884;48.616;12.872;2024-02-21T12:59:23;11.40;82.90
7684;DHT22;3884;48.616;12.872;2024-02-21T13:01:51;11.40;77.90
7684;DHT22;3884;48.616;12.872;2024-02-21T13:04:21;11.60;73.50
7684;DHT22;3884;48.616;12.872;2024-02-21T13:06:49;11.60;58.90
7684;DHT22;3884;48.616;12.872;2024-02-21T13:09:17;11.70;52.30
7684;DHT22;3884;48.616;12.872;2024-02-21T13:12:00;11.60;53.20
7684;DHT22;3884;48.616;12.872;2024-02-21T13:14:33;11.60;47.80
7684;DHT22;3884;48.616;12.872;2024-02-21T13:17:06;11.60;54.60
7684;DHT22;3884;48.616;12.872;2024-02-21T13:19:41;11.60;57.30
7684;DHT22;3884;48.616;12.872;2024-02-21T13:22:08;11.70;63.70
7684;DHT22;3884;48.616;12.872;2024-02-21T13:24:35;11.80;42.10
7684;DHT22;3884;48.616;12.872;2024-02-21T13:27:06;11.80;42.90
7684;DHT22;3884;48.616;12.872;2024-02-21T13:29:34;11.70;45.90
7684;DHT22;3884;48.616;12.872;2024-02-21T13:32:02;11.70;42.20
7684;DHT22;3884;48.616;12.872;2024-02-21T13:34:30;11.70;40.60
7684;DHT22;3884;48.616;12.872;2024-02-21T13:36:57;11.70;44.20
7684;DHT22;3884;48.616;12.872;2024-02-21T13:39:26;11.60;45.80
7684;DHT22;3884;48.616;12.872;2024-02-21T13:41:53;11.70;41.00
7684;DHT22;3884;48.616;12.872;2024-02-21T13:44:22;11.80;36.60
7684;DHT22;3884;48.616;12.872;2024-02-21T13:46:49;11.80;45.30
7684;DHT22;3884;48.616;12.872;2024-02-21T13:49:16;11.80;41.20
7684;DHT22;3884;48.616;12.872;2024-02-21T13:51:44;11.80;34.80
7684;DHT22;3884;48.616;12.872;2024-02-21T13:54:11;11.70;37.00
7684;DHT22;3884;48.616;12.872;2024-02-21T13:56:42;11.70;41.20
7684;DHT22;3884;48.616;12.872;2024-02-21T13:59:09;11.80;35.10
7684;DHT22;3884;48.616;12.872;2024-02-21T14:01:43;11.70;42.50
7684;DHT22;3884;48.616;12.872;2024-02-21T14:04:12;11.90;26.90
7684;DHT22;3884;48.616;12.872;2024-02-21T14:06:44;11.90;32.90
7684;DHT22;3884;48.616;12.872;2024-02-21T14:09:11;11.90;28.70
7684;DHT22;3884;48.616;12.872;2024-02-21T14:11:38;11.80;32.60
7684;DHT22;3884;48.616;12.872;2024-02-21T14:14:05;12.00;28.00
7684;DHT22;3884;48.616;12.872;2024-02-21T14:16:32;12.00;30.20
7684;DHT22;3884;48.616;12.872;2024-02-21T14:19:01;12.00;31.80
7684;DHT22;3884;48.616;12.872;2024-02-21T14:21:35;11.80;32.00
7684;DHT22;3884;48.616;12.872;2024-02-21T14:24:04;11.70;35.00
7684;DHT22;3884;48.616;12.872;2024-02-21T14:26:32;11.60;40.20
7684;DHT22;3884;48.616;12.872;2024-02-21T14:28:59;11.80;31.70
7684;DHT22;3884;48.616;12.872;2024-02-21T14:31:55;11.90;27.40
7684;DHT22;3884;48.616;12.872;2024-02-21T14:34:40;11.70;26.20
7684;DHT22;3884;48.616;12.872;2024-02-21T14:37:08;11.80;27.30
7684;DHT22;3884;48.616;12.872;2024-02-21T14:39:35;12.10;23.00
7684;DHT22;3884;48.616;12.872;2024-02-21T14:42:02;12.20;23.10
7684;DHT22;3884;48.616;12.872;2024-02-21T14:44:29;12.20;19.80
7684;DHT22;3884;48.616;12.872;2024-02-21T14:46:56;12.00;18.80
7684;DHT22;3884;48.616;12.872;2024-02-21T14:49:23;12.10;13.70
7684;DHT22;3884;48.616;12.872;2024-02-21T14:51:52;12.10;23.00
7684;DHT22;3884;48.616;12.872;2024-02-21T14:54:19;12.10;16.70
7684;DHT22;3884;48.616;12.872;2024-02-21T14:56:46;12.00;15.10
7684;DHT22;3884;48.616;12.872;2024-02-21T14:59:13;12.00;13.00
7684;DHT22;3884;48.616;12.872;2024-02-21T15:01:43;11.90;9.80
7684;DHT22;3884;48.616;12.872;2024-02-21T15:04:10;11.90;14.00
7684;DHT22;3884;48.616;12.872;2024-02-21T15:06:38;11.90;28.90
7684;DHT22;3884;48.616;12.872;2024-02-21T15:09:08;11.80;14.80
7684;DHT22;3884;48.616;12.872;2024-02-21T15:11:37;11.70;17.50
7684;DHT22;3884;48.616;12.872;2024-02-21T15:14:04;11.70;18.30
7684;DHT22;3884;48.616;12.872;2024-02-21T15:16:31;11.60;20.20
7684;DHT22;3884;48.616;12.872;2024-02-21T15:18:58;11.50;17.60
7684;DHT22;3884;48.616;12.872;2024-02-21T15:21:25;11.50;20.10
7684;DHT22;3884;48.616;12.872;2024-02-21T15:23:53;11.50;17.20
7684;DHT22;3884;48.616;12.872;2024-02-21T15:26:24;11.40;22.80
7684;DHT22;3884;48.616;12.872;2024-02-21T15:28:51;11.20;26.30
7684;DHT22;3884;48.616;12.872;2024-02-21T15:31:21;11.00;27.90
7684;DHT22;3884;48.616;12.872;2024-02-21T15:33:49;11.00;22.70
7684;DHT22;3884;48.616;12.872;2024-02-21T15:36:16;11.00;26.00
7684;DHT22;3884;48.616;12.872;2024-02-21T15:38:43;11.00;28.40
7684;DHT22;3884;48.616;12.872;2024-02-21T15:41:11;10.90;50.70
7684;DHT22;3884;48.616;12.872;2024-02-21T15:43:41;10.80;29.30
7684;DHT22;3884;48.616;12.872;2024-02-21T15:46:11;10.70;29.80
7684;DHT22;3884;48.616;12.872;2024-02-21T15:48:38;10.60;46.10
7684;DHT22;3884;48.616;12.872;2024-02-21T15:51:06;10.40;63.00
7684;DHT22;3884;48.616;12.872;2024-02-21T15:53:33;10.20;89.20
7684;DHT22;3884;48.616;12.872;2024-02-21T15:56:01;10.00;90.20
7684;DHT22;3884;48.616;12.872;2024-02-21T15:58:29;10.00;94.70
7684;DHT22;3884;48.616;12.872;2024-02-21T16:00:58;9.70;92.30
7684;DHT22;3884;48.616;12.872;2024-02-21T16:03:25;9.70;91.50
7684;DHT22;3884;48.616;12.872;2024-02-21T16:05:53;9.60;91.20
7684;DHT22;3884;48.616;12.872;2024-02-21T16:08:20;9.50;92.50
7684;DHT22;3884;48.616;12.872;2024-02-21T16:10:48;9.40;94.50